KDNN/DNN METAR and TAF weather

Enter ICAO airport designator
Station Type Date Time Source
KDNN METAR 2021/02/27 03:35 UTC NOAA

KDNN 270335Z AUTO 19004KT 10SM OVC013 11/09 A3011 RMK AO2


Station Type Date Time Source
KDNN Decoded METAR 2021/02/27 03:35 UTC NOAA

Dalton, Dalton Municipal Airport, GA, United States (KDNN) 34-43-18N 084-52-09W
Feb 26, 2021 - 10:35 PM EST / 2021.02.27 0335 UTC
Wind: from the S (190 degrees) at 5 MPH (4 KT):0
Visibility: 10 mile(s):0
Sky conditions: overcast
Temperature: 51 F (11 C)
Dew Point: 48 F (9 C)
Relative Humidity: 87%
Pressure (altimeter): 30.11 in. Hg (1019 hPa)
ob: KDNN 270335Z AUTO 19004KT 10SM OVC013 11/09 A3011 RMK AO2
cycle: 3

Station Type Date Time Source
KDNN TAF UTC NOAA

Error!

Example: see airport list